TimeCET,TemperatureF,Dew PointF,Humidity,Sea Level PressureIn,VisibilityMPH,Wind Direction,Wind SpeedMPH,Gust SpeedMPH,PrecipitationIn,Events,Conditions,WindDirDegrees,DateUTC
5:00 AM,50.0,42.8,76,29.89,-9999.0,South,3.5,-,N/A,,Clear,190,2013-02-20 04:00:00
5:30 AM,48.2,41.0,76,29.89,-9999.0,Variable,1.2,-,N/A,,Clear,0,2013-02-20 04:30:00
6:00 AM,48.2,41.0,76,29.89,-9999.0,Variable,1.2,-,N/A,,Clear,0,2013-02-20 05:00:00
6:30 AM,48.2,41.0,76,29.89,-9999.0,Calm,Calm,-,N/A,,Clear,0,2013-02-20 05:30:00
7:00 AM,48.2,41.0,76,29.89,-9999.0,Variable,2.3,-,N/A,,Clear,0,2013-02-20 06:00:00
7:30 AM,48.2,41.0,76,29.89,-9999.0,Calm,Calm,-,N/A,,Clear,0,2013-02-20 06:30:00
8:00 AM,46.4,41.0,81,29.89,-9999.0,Variable,2.3,-,N/A,,Clear,0,2013-02-20 07:00:00
8:30 AM,48.2,41.0,76,29.92,-9999.0,Variable,2.3,-,N/A,,Clear,0,2013-02-20 07:30:00
9:00 AM,46.4,41.0,81,29.92,-9999.0,SE,5.8,-,N/A,,Clear,140,2013-02-20 08:00:00
10:00 AM,50.0,44.6,82,29.92,-9999.0,Variable,2.3,-,N/A,,Clear,0,2013-02-20 09:00:00
10:30 AM,53.6,44.6,72,29.92,-9999.0,SE,3.5,-,N/A,,Clear,130,2013-02-20 09:30:00
11:00 AM,55.4,44.6,67,29.92,-9999.0,Variable,2.3,-,N/A,,Clear,0,2013-02-20 10:00:00
11:30 AM,55.4,44.6,67,29.92,-9999.0,Variable,2.3,-,N/A,,Clear,0,2013-02-20 10:30:00
12:00 PM,59.0,44.6,59,29.92,-9999.0,South,3.5,-,N/A,,Clear,190,2013-02-20 11:00:00
12:30 PM,60.8,44.6,55,29.92,-9999.0,Variable,2.3,-,N/A,,Clear,0,2013-02-20 11:30:00
1:00 PM,62.6,44.6,52,29.92,-9999.0,Variable,1.2,-,N/A,,Clear,0,2013-02-20 12:00:00
1:30 PM,64.4,46.4,52,29.89,-9999.0,Variable,1.2,-,N/A,,Clear,0,2013-02-20 12:30:00
2:00 PM,66.2,44.6,46,29.89,-9999.0,Variable,1.2,-,N/A,,Clear,0,2013-02-20 13:00:00
3:00 PM,66.2,46.4,49,29.86,6.2,Calm,Calm,-,N/A,,Partly Cloudy,0,2013-02-20 14:00:00
4:00 PM,59.0,48.2,67,29.86,6.2,WNW,8.1,-,N/A,,Partly Cloudy,290,2013-02-20 15:00:00
4:30 PM,59.0,48.2,67,29.86,6.2,WNW,4.6,-,N/A,,Partly Cloudy,290,2013-02-20 15:30:00
5:00 PM,59.0,48.2,67,29.86,6.2,WNW,4.6,-,N/A,,Partly Cloudy,290,2013-02-20 16:00:00
5:30 PM,57.2,48.2,72,29.86,-9999.0,NW,8.1,-,N/A,,Clear,310,2013-02-20 16:30:00
6:00 PM,57.2,46.4,67,29.86,-9999.0,WNW,6.9,-,N/A,,Clear,300,2013-02-20 17:00:00
6:30 PM,55.4,46.4,72,29.86,-9999.0,NW,4.6,-,N/A,,Clear,310,2013-02-20 17:30:00
7:00 PM,53.6,46.4,77,29.86,-9999.0,Variable,2.3,-,N/A,,Clear,0,2013-02-20 18:00:00
7:30 PM,51.8,46.4,82,29.89,-9999.0,Variable,1.2,-,N/A,,Clear,0,2013-02-20 18:30:00
8:00 PM,51.8,46.4,82,29.89,-9999.0,Calm,Calm,-,N/A,,Clear,0,2013-02-20 19:00:00
8:30 PM,51.8,46.4,82,29.89,-9999.0,Variable,1.2,-,N/A,,Clear,0,2013-02-20 19:30:00
9:00 PM,50.0,46.4,87,29.86,-9999.0,Variable,1.2,-,N/A,,Clear,0,2013-02-20 20:00:00
9:30 PM,50.0,46.4,87,29.89,-9999.0,Variable,1.2,-,N/A,,Clear,0,2013-02-20 20:30:00
10:00 PM,50.0,44.6,82,29.89,-9999.0,Variable,1.2,-,N/A,,Clear,0,2013-02-20 21:00:00
10:30 PM,50.0,46.4,87,29.86,-9999.0,East,3.5,-,N/A,,Clear,100,2013-02-20 21:30:00
11:00 PM,50.0,46.4,87,29.86,-9999.0,Variable,2.3,-,N/A,,Clear,0,2013-02-20 22:00:00
11:30 PM,50.0,46.4,87,29.86,-9999.0,Variable,2.3,-,N/A,,Clear,0,2013-02-20 22:30:00